Hilo, Hawaii
Current Conditions -  °F | °C
As of 3:53 AM on Friday 24 Oct 2014 (Local Time) from PHTO Reporting Station
Scattered Clouds Scattered Clouds  
Wind Chill: 72°   Ceiling: Unl
Heat Index: 72°   Visibility: 10mi
Dew Point: 68°   Wind: 7mph
Humidity: 87%   Direction: 240°WSW
Pressure: 30"   Gusts: NA
Location:  19.72°N, 155.08°W
Report Text: PHTO 241353Z 24006KT 10SM FEW025 SCT100 22/20 A3000 RMK AO2 SLP157 T02220200
Loading
Personal Weather Stations






























Interactive Weather Map New forecast layout! Learn more

10-Day Weather Forecast

Advertisements
Track Severe Weather on mobile